Mehama, Oregon
Current Conditions -  °F | °C
As of 11:56 AM on Wednesday 17 Dec 2014 (Local Time) from KSLE Reporting Station
Overcast Overcast  
Wind Chill: 45°   Ceiling: 4900
Heat Index: 45°   Visibility: 10mi
Dew Point: 37°   Wind: 0mph
Humidity: 74%   Direction: NA
Pressure: 29.84"   Gusts: NA
Location:  44.79°N, 122.62°W
Report Text: KSLE 171956Z 00000KT 10SM OVC049 07/03 A2984 RMK AO2 RAB43E54 SLP107 P0000 T00720028
Loading
Personal Weather Stations






























Interactive Weather Map New forecast layout! Learn more

10-Day Weather Forecast

Advertisements
Track Severe Weather on mobile